Time;durP1;ratioP1;P1;durP2;ratioP2;P2;SDS_P1;SDS_P2;PMS_P1;PMS_P2;Temp;Humidity;BMP_temperature;BMP_pressure;BME280_temperature;BME280_humidity;BME280_pressure;Samples;Min_cycle;Max_cycle;Signal;HPM_P1;HPM_P2
2022/07/08 00:02:15;;;;;;;8.40;2.08;;;20.50;59.00;;;;;;20907162;28;20404;-74
2022/07/08 00:12:16;;;;;;;10.00;1.70;;;20.50;59.00;;;;;;20939686;28;20047;-74
2022/07/08 00:22:16;;;;;;;9.80;2.30;;;20.40;59.00;;;;;;20940466;28;20081;-74
2022/07/08 00:32:18;;;;;;;7.03;2.42;;;20.40;59.00;;;;;;20900310;28;20242;-74
2022/07/08 00:42:18;;;;;;;8.90;1.83;;;20.40;59.10;;;;;;20918460;28;20032;-74
2022/07/08 00:52:19;;;;;;;7.88;1.73;;;20.40;59.20;;;;;;21347356;22;20052;-72
2022/07/08 01:02:19;;;;;;;6.10;1.50;;;20.40;59.20;;;;;;21028504;28;20753;-70
2022/07/08 01:12:20;;;;;;;7.65;1.90;;;20.40;59.30;;;;;;21018768;28;20501;-70
2022/07/08 01:22:20;;;;;;;9.07;2.88;;;20.40;59.30;;;;;;21014677;28;20032;-71
2022/07/08 01:32:21;;;;;;;8.93;1.83;;;20.30;59.20;;;;;;20975093;28;20044;-71
2022/07/08 01:42:22;;;;;;;6.80;1.83;;;20.30;59.20;;;;;;20981956;28;20025;-70
2022/07/08 01:52:22;;;;;;;4.77;1.97;;;20.40;59.30;;;;;;21032097;28;20032;-70
2022/07/08 02:02:23;;;;;;;7.45;1.60;;;20.30;59.20;;;;;;20980509;28;20036;-70
2022/07/08 02:12:24;;;;;;;8.65;1.60;;;20.30;59.30;;;;;;21013461;28;20789;-70
2022/07/08 02:22:24;;;;;;;6.05;1.58;;;20.30;59.30;;;;;;20982386;28;20088;-71
2022/07/08 02:32:25;;;;;;;7.60;1.50;;;20.30;59.30;;;;;;20988058;28;20032;-70
2022/07/08 02:42:25;;;;;;;7.30;1.30;;;20.30;59.30;;;;;;20961435;28;20380;-70
2022/07/08 02:52:26;;;;;;;7.32;1.48;;;20.20;59.20;;;;;;21028186;28;20039;-70
2022/07/08 03:02:26;;;;;;;10.93;1.80;;;20.20;59.20;;;;;;20968988;28;20039;-69
2022/07/08 03:12:27;;;;;;;4.25;2.20;;;20.20;59.20;;;;;;20978002;28;20040;-69
2022/07/08 03:22:28;;;;;;;5.97;2.35;;;20.20;59.20;;;;;;21012983;28;20081;-70
2022/07/08 03:32:28;;;;;;;6.30;1.67;;;20.20;59.20;;;;;;21004994;28;20089;-69
2022/07/08 03:42:29;;;;;;;6.18;1.52;;;20.20;59.10;;;;;;21022587;28;20055;-69
2022/07/08 03:52:29;;;;;;;4.07;1.60;;;20.20;59.10;;;;;;21016094;28;20047;-69
2022/07/08 04:02:30;;;;;;;6.07;1.30;;;20.10;59.00;;;;;;21020151;28;20291;-69
2022/07/08 04:12:30;;;;;;;7.15;1.63;;;20.20;59.00;;;;;;21019510;28;20043;-69
2022/07/08 04:22:31;;;;;;;4.43;1.27;;;20.10;58.90;;;;;;20986993;28;20430;-68
2022/07/08 04:32:32;;;;;;;3.90;1.00;;;20.10;58.80;;;;;;21010925;28;20515;-71
2022/07/08 04:42:32;;;;;;;4.32;1.25;;;20.10;58.80;;;;;;20997310;28;20039;-71
2022/07/08 04:52:33;;;;;;;5.53;1.35;;;20.10;58.70;;;;;;20995223;28;20123;-68
2022/07/08 05:02:33;;;;;;;3.73;1.13;;;20.10;58.80;;;;;;21032575;28;20508;-72
2022/07/08 05:12:34;;;;;;;6.82;1.52;;;20.10;58.90;;;;;;21029019;28;20385;-69
2022/07/08 05:22:35;;;;;;;7.13;1.45;;;20.00;58.80;;;;;;20969989;28;20020;-71
2022/07/08 05:32:36;;;;;;;5.13;1.30;;;20.00;58.70;;;;;;20979617;28;20060;-73
2022/07/08 05:42:36;;;;;;;3.60;1.10;;;20.00;58.70;;;;;;21020602;28;20210;-70
2022/07/08 05:52:37;;;;;;;4.07;1.33;;;20.10;58.70;;;;;;21028442;28;20123;-69
2022/07/08 06:02:38;;;;;;;6.47;1.33;;;20.10;58.70;;;;;;20966332;28;21099;-68
2022/07/08 06:12:38;;;;;;;4.87;1.23;;;20.10;58.70;;;;;;20991347;28;20298;-71
2022/07/08 06:22:39;;;;;;;5.65;1.33;;;20.10;58.70;;;;;;21017063;28;20286;-70
2022/07/08 06:32:39;;;;;;;3.55;1.02;;;20.10;58.70;;;;;;20980350;28;20142;-70
2022/07/08 06:42:40;;;;;;;5.97;0.93;;;20.10;58.70;;;;;;21009543;28;20474;-70
2022/07/08 06:52:41;;;;;;;8.57;1.20;;;20.10;58.60;;;;;;21016800;28;20044;-70
2022/07/08 07:02:41;;;;;;;4.82;1.05;;;20.10;58.60;;;;;;21007320;28;20023;-71
2022/07/08 07:12:42;;;;;;;7.07;1.67;;;20.10;58.40;;;;;;21001959;28;20500;-69
2022/07/08 07:22:43;;;;;;;5.10;1.45;;;20.10;58.30;;;;;;21015854;28;20111;-70
2022/07/08 07:32:43;;;;;;;3.37;1.00;;;20.10;58.10;;;;;;21006226;28;20042;-69
2022/07/08 07:42:44;;;;;;;2.47;0.75;;;20.10;58.00;;;;;;20969960;28;20381;-68
2022/07/08 07:52:44;;;;;;;7.97;1.27;;;20.10;57.90;;;;;;21004361;28;20036;-69
2022/07/08 08:02:45;;;;;;;2.20;0.80;;;20.10;57.80;;;;;;20992531;28;20104;-69
2022/07/08 08:12:46;;;;;;;5.07;1.30;;;20.10;57.80;;;;;;21030968;28;20037;-69
2022/07/08 08:22:46;;;;;;;6.50;0.88;;;20.10;57.80;;;;;;20974393;28;20497;-73
2022/07/08 08:32:47;;;;;;;5.47;1.10;;;20.10;57.70;;;;;;20992870;28;20070;-74
2022/07/08 08:42:48;;;;;;;2.95;0.98;;;20.10;57.70;;;;;;20995865;28;20024;-73
2022/07/08 08:52:49;;;;;;;2.28;0.60;;;20.10;57.60;;;;;;21040378;28;20032;-73
2022/07/08 09:02:54;;;;;;;3.03;1.00;;;20.10;57.60;;;;;;20982496;28;20056;-71
2022/07/08 09:13:11;;;;;;;2.63;1.27;;;20.10;57.60;;;;;;21041425;28;20050;-69
2022/07/08 09:23:26;;;;;;;7.60;1.90;;;20.10;57.60;;;;;;21080305;28;20036;-69
2022/07/08 09:33:27;;;;;;;4.27;0.90;;;20.20;57.70;;;;;;20998114;28;20043;-71
2022/07/08 09:43:28;;;;;;;4.22;0.90;;;20.20;57.80;;;;;;21008442;28;20040;-71
2022/07/08 09:53:29;;;;;;;4.80;1.15;;;20.20;57.80;;;;;;20996436;28;20036;-72
2022/07/08 10:03:30;;;;;;;2.95;1.10;;;20.30;57.90;;;;;;21034167;28;20032;-73
2022/07/08 10:13:31;;;;;;;7.03;1.48;;;20.30;58.00;;;;;;20977065;28;20084;-72
2022/07/08 10:23:42;;;;;;;6.30;1.40;;;20.30;58.70;;;;;;21037835;28;20033;-72
2022/07/08 10:33:46;;;;;;;7.43;1.13;;;20.30;58.00;;;;;;20985246;28;20062;-71
2022/07/08 10:43:54;;;;;;;3.35;1.20;;;20.40;58.20;;;;;;21004906;28;20039;-69
2022/07/08 10:53:55;;;;;;;5.70;1.20;;;20.40;58.40;;;;;;21014473;28;20492;-71
2022/07/08 11:03:56;;;;;;;11.02;1.10;;;20.40;58.50;;;;;;21020304;28;20035;-69
2022/07/08 11:13:57;;;;;;;5.00;1.42;;;20.40;58.60;;;;;;21004970;28;20028;-72
2022/07/08 11:23:58;;;;;;;3.75;0.70;;;20.40;58.70;;;;;;21006919;28;20436;-71
2022/07/08 11:33:58;;;;;;;3.63;1.00;;;20.50;59.00;;;;;;21009483;28;20084;-70
2022/07/08 11:43:59;;;;;;;3.78;1.00;;;20.50;59.20;;;;;;21008892;28;20036;-67
2022/07/08 11:54:00;;;;;;;7.70;1.57;;;20.50;59.20;;;;;;21023980;28;20044;-70
2022/07/08 12:04:06;;;;;;;2.83;1.02;;;20.50;59.30;;;;;;21020596;28;20348;-73
2022/07/08 12:14:08;;;;;;;7.88;0.82;;;20.50;59.40;;;;;;21003854;28;20093;-75
2022/07/08 12:24:09;;;;;;;5.80;1.52;;;20.50;59.50;;;;;;20992863;28;20486;-74
2022/07/08 12:34:15;;;;;;;4.93;2.00;;;20.60;59.80;;;;;;20995712;28;20204;-75
2022/07/08 12:44:34;;;;;;;2.00;1.25;;;20.60;59.80;;;;;;20978376;28;20047;-75
2022/07/08 12:54:35;;;;;;;2.70;1.10;;;20.80;59.90;;;;;;21037876;28;20474;-77
2022/07/08 13:04:35;;;;;;;1.85;0.85;;;20.90;59.90;;;;;;20982256;28;20043;-74
2022/07/08 13:14:36;;;;;;;1.88;0.90;;;21.00;61.00;;;;;;21008541;28;20498;-78
2022/07/08 13:24:37;;;;;;;1.05;0.70;;;20.90;60.70;;;;;;21022050;28;20505;-83
2022/07/08 13:34:37;;;;;;;1.20;0.68;;;20.90;60.90;;;;;;21002728;28;20082;-78
2022/07/08 13:44:38;;;;;;;0.95;0.50;;;20.90;61.00;;;;;;21017989;28;20059;-71
2022/07/08 13:54:38;;;;;;;1.40;0.60;;;21.00;61.30;;;;;;21018857;28;20036;-72
2022/07/08 14:04:39;;;;;;;2.95;0.50;;;21.00;61.30;;;;;;20984459;28;20143;-71
2022/07/08 14:14:40;;;;;;;0.85;0.55;;;21.10;61.40;;;;;;20988879;28;20132;-75
2022/07/08 14:24:42;;;;;;;4.68;1.02;;;21.10;61.50;;;;;;21016947;28;20039;-72
2022/07/08 14:34:43;;;;;;;2.45;1.00;;;21.10;61.40;;;;;;20998900;28;20089;-74
2022/07/08 14:44:43;;;;;;;0.93;0.55;;;21.10;61.50;;;;;;20961600;28;20478;-73
2022/07/08 14:54:44;;;;;;;1.45;0.73;;;21.20;61.60;;;;;;21032474;28;20098;-79
2022/07/08 15:04:44;;;;;;;2.10;0.80;;;21.20;61.50;;;;;;21003844;28;20064;-73
2022/07/08 15:14:46;;;;;;;2.08;0.73;;;21.20;61.50;;;;;;20997786;28;20043;-74
2022/07/08 15:24:47;;;;;;;1.20;0.68;;;21.40;61.50;;;;;;20994536;28;20028;-72
2022/07/08 15:34:47;;;;;;;4.45;1.00;;;21.30;61.60;;;;;;20965936;28;20462;-72
2022/07/08 15:44:48;;;;;;;1.20;0.70;;;21.40;62.00;;;;;;20959823;28;20638;-72
2022/07/08 15:54:50;;;;;;;0.88;0.47;;;21.40;62.20;;;;;;20983568;28;20071;-74
2022/07/08 16:04:50;;;;;;;2.25;0.95;;;21.40;62.40;;;;;;20976095;28;20035;-72
2022/07/08 16:14:51;;;;;;;1.55;0.77;;;21.40;62.60;;;;;;20988478;28;20133;-70
2022/07/08 16:24:51;;;;;;;2.10;0.70;;;21.40;62.80;;;;;;20973480;28;20044;-72
2022/07/08 16:34:52;;;;;;;3.20;1.08;;;21.40;62.90;;;;;;21038734;28;20389;-73
2022/07/08 16:44:52;;;;;;;2.03;1.30;;;21.40;62.90;;;;;;21002883;28;20036;-72
2022/07/08 16:54:53;;;;;;;4.22;1.40;;;21.40;62.80;;;;;;21028412;28;20062;-71
2022/07/08 17:04:54;;;;;;;2.42;0.90;;;21.50;62.70;;;;;;21013067;28;20063;-71
2022/07/08 17:14:54;;;;;;;1.40;0.68;;;21.60;62.50;;;;;;20992856;28;20035;-70
2022/07/08 17:24:56;;;;;;;1.63;0.90;;;21.70;62.40;;;;;;21006848;28;20040;-71
2022/07/08 17:34:57;;;;;;;1.48;0.73;;;21.70;62.30;;;;;;20956165;28;20040;-71
2022/07/08 17:44:58;;;;;;;3.53;1.00;;;21.70;62.30;;;;;;20994376;28;20116;-73
2022/07/08 17:54:59;;;;;;;2.30;1.27;;;21.70;62.10;;;;;;21011405;28;20083;-72
2022/07/08 18:04:59;;;;;;;1.43;0.80;;;21.70;62.10;;;;;;20995966;28;20760;-71
2022/07/08 18:15:00;;;;;;;1.40;0.70;;;21.70;62.30;;;;;;21014291;28;20094;-73
2022/07/08 18:25:00;;;;;;;1.30;1.00;;;21.60;62.50;;;;;;20962535;28;20645;-72
2022/07/08 18:35:01;;;;;;;6.72;1.30;;;21.60;62.60;;;;;;20994076;28;20186;-70
2022/07/08 18:45:02;;;;;;;4.32;1.80;;;21.60;62.70;;;;;;21014791;28;20040;-72
2022/07/08 18:55:03;;;;;;;2.80;1.10;;;21.50;63.00;;;;;;20991316;28;20085;-70
2022/07/08 19:05:04;;;;;;;2.95;0.98;;;21.50;63.30;;;;;;21016338;28;20043;-71
2022/07/08 19:15:05;;;;;;;1.90;1.05;;;21.40;63.50;;;;;;20995885;28;20197;-74
2022/07/08 19:25:06;;;;;;;1.17;0.95;;;21.40;63.60;;;;;;20967271;28;20051;-71
2022/07/08 19:35:07;;;;;;;4.55;1.40;;;21.30;63.70;;;;;;20983117;28;20032;-70
2022/07/08 19:45:08;;;;;;;2.65;1.25;;;21.30;64.00;;;;;;20999711;28;20033;-70
2022/07/08 19:55:09;;;;;;;3.33;1.50;;;21.30;64.20;;;;;;21019871;28;20466;-70
2022/07/08 20:05:10;;;;;;;2.47;1.05;;;21.30;64.40;;;;;;21006360;28;20127;-75
2022/07/08 20:15:10;;;;;;;2.60;1.25;;;21.20;64.40;;;;;;21008406;28;20044;-72
2022/07/08 20:25:11;;;;;;;3.28;1.35;;;21.10;64.50;;;;;;21008423;28;20036;-70
2022/07/08 20:35:12;;;;;;;4.47;1.27;;;21.10;64.80;;;;;;21001715;28;20054;-70
2022/07/08 20:45:16;;;;;;;2.00;1.20;;;21.00;64.90;;;;;;20970034;28;20501;-70
2022/07/08 20:55:17;;;;;;;2.35;1.40;;;21.10;64.90;;;;;;21014304;28;20116;-74
2022/07/08 21:05:17;;;;;;;4.03;1.27;;;21.00;64.90;;;;;;21039766;28;20028;-71
2022/07/08 21:15:18;;;;;;;1.70;0.88;;;21.00;64.90;;;;;;21020622;28;20094;-73
2022/07/08 21:25:19;;;;;;;2.53;1.03;;;20.90;64.80;;;;;;20994489;28;20040;-74
2022/07/08 21:35:19;;;;;;;2.85;0.90;;;20.90;64.60;;;;;;20978194;28;20295;-72
2022/07/08 21:45:20;;;;;;;1.23;0.77;;;20.90;64.40;;;;;;20998692;28;20048;-72
2022/07/08 21:55:21;;;;;;;4.07;0.97;;;20.80;64.20;;;;;;21011227;28;20122;-71
2022/07/08 22:05:22;;;;;;;2.53;1.10;;;20.80;64.00;;;;;;21003901;28;20799;-70
2022/07/08 22:15:22;;;;;;;3.33;0.65;;;20.70;63.70;;;;;;21002559;28;20040;-71
2022/07/08 22:25:23;;;;;;;2.97;0.88;;;20.70;63.50;;;;;;20996436;28;20032;-70
2022/07/08 22:35:23;;;;;;;2.00;0.70;;;20.70;63.20;;;;;;20981612;28;20073;-71
2022/07/08 22:45:24;;;;;;;4.18;0.98;;;20.60;62.90;;;;;;20964168;28;20113;-70
2022/07/08 22:55:24;;;;;;;2.75;1.25;;;20.60;62.70;;;;;;21030442;28;20043;-75
2022/07/08 23:05:26;;;;;;;2.38;0.88;;;20.50;62.50;;;;;;21016776;28;20131;-72
2022/07/08 23:15:26;;;;;;;2.50;1.00;;;20.50;62.60;;;;;;21026723;28;20393;-71
2022/07/08 23:25:27;;;;;;;2.75;1.08;;;20.40;62.60;;;;;;20976614;28;20170;-71
2022/07/08 23:35:27;;;;;;;1.95;1.13;;;20.50;62.70;;;;;;21003266;28;20028;-70
2022/07/08 23:45:28;;;;;;;1.87;0.87;;;20.50;62.70;;;;;;21022696;28;20142;-71
2022/07/08 23:55:29;;;;;;;1.60;1.00;;;20.50;62.70;;;;;;21058607;28;20669;-70
